sensor_id;sensor_type;location;lat;lon;timestamp;P1;durP1;ratioP1;P2;durP2;ratioP2
15693;SDS011;7947;48.834;9.132;2023-05-07T00:00:25;4.13;;;2.25;;
15693;SDS011;7947;48.834;9.132;2023-05-07T00:03:27;2.35;;;2.13;;
15693;SDS011;7947;48.834;9.132;2023-05-07T00:06:31;3.85;;;2.60;;
15693;SDS011;7947;48.834;9.132;2023-05-07T00:09:36;3.85;;;2.10;;
15693;SDS011;7947;48.834;9.132;2023-05-07T00:12:39;2.20;;;1.80;;
15693;SDS011;7947;48.834;9.132;2023-05-07T00:15:43;3.05;;;2.40;;
15693;SDS011;7947;48.834;9.132;2023-05-07T00:18:45;3.58;;;2.42;;
15693;SDS011;7947;48.834;9.132;2023-05-07T00:21:48;3.05;;;2.08;;
15693;SDS011;7947;48.834;9.132;2023-05-07T00:24:52;3.55;;;2.00;;
15693;SDS011;7947;48.834;9.132;2023-05-07T00:27:55;3.85;;;2.10;;
15693;SDS011;7947;48.834;9.132;2023-05-07T00:30:58;2.63;;;2.22;;
15693;SDS011;7947;48.834;9.132;2023-05-07T00:34:01;2.88;;;2.63;;
15693;SDS011;7947;48.834;9.132;2023-05-07T00:37:04;4.45;;;2.20;;
15693;SDS011;7947;48.834;9.132;2023-05-07T00:40:10;2.72;;;2.03;;
15693;SDS011;7947;48.834;9.132;2023-05-07T00:43:13;2.78;;;1.98;;
15693;SDS011;7947;48.834;9.132;2023-05-07T00:46:16;2.63;;;2.38;;
15693;SDS011;7947;48.834;9.132;2023-05-07T00:49:19;5.93;;;2.33;;
15693;SDS011;7947;48.834;9.132;2023-05-07T00:52:22;3.22;;;2.30;;
15693;SDS011;7947;48.834;9.132;2023-05-07T00:55:30;4.15;;;2.03;;
15693;SDS011;7947;48.834;9.132;2023-05-07T00:58:32;3.92;;;2.30;;
15693;SDS011;7947;48.834;9.132;2023-05-07T01:01:35;4.95;;;2.75;;
15693;SDS011;7947;48.834;9.132;2023-05-07T01:04:38;3.15;;;2.42;;
15693;SDS011;7947;48.834;9.132;2023-05-07T01:07:42;3.97;;;2.20;;
15693;SDS011;7947;48.834;9.132;2023-05-07T01:10:46;3.80;;;2.67;;
15693;SDS011;7947;48.834;9.132;2023-05-07T01:13:49;2.67;;;2.20;;
15693;SDS011;7947;48.834;9.132;2023-05-07T01:16:53;2.70;;;2.30;;
15693;SDS011;7947;48.834;9.132;2023-05-07T01:19:56;3.78;;;2.72;;
15693;SDS011;7947;48.834;9.132;2023-05-07T01:23:00;3.30;;;2.65;;
15693;SDS011;7947;48.834;9.132;2023-05-07T01:26:05;2.97;;;2.20;;
15693;SDS011;7947;48.834;9.132;2023-05-07T01:29:08;4.53;;;2.40;;
15693;SDS011;7947;48.834;9.132;2023-05-07T01:32:11;4.68;;;2.65;;
15693;SDS011;7947;48.834;9.132;2023-05-07T01:35:18;3.47;;;2.40;;
15693;SDS011;7947;48.834;9.132;2023-05-07T01:38:23;3.13;;;2.53;;
15693;SDS011;7947;48.834;9.132;2023-05-07T01:41:26;4.45;;;2.40;;
15693;SDS011;7947;48.834;9.132;2023-05-07T01:44:29;3.08;;;2.22;;
15693;SDS011;7947;48.834;9.132;2023-05-07T01:47:32;3.45;;;2.45;;
15693;SDS011;7947;48.834;9.132;2023-05-07T01:50:35;3.28;;;2.90;;
15693;SDS011;7947;48.834;9.132;2023-05-07T01:53:40;4.45;;;2.40;;
15693;SDS011;7947;48.834;9.132;2023-05-07T01:56:45;3.13;;;2.50;;
15693;SDS011;7947;48.834;9.132;2023-05-07T01:59:49;3.40;;;2.70;;
15693;SDS011;7947;48.834;9.132;2023-05-07T02:02:52;4.35;;;2.50;;
15693;SDS011;7947;48.834;9.132;2023-05-07T02:05:55;3.10;;;2.17;;
15693;SDS011;7947;48.834;9.132;2023-05-07T02:08:59;3.80;;;2.80;;
15693;SDS011;7947;48.834;9.132;2023-05-07T02:12:02;3.28;;;2.60;;
15693;SDS011;7947;48.834;9.132;2023-05-07T02:15:05;4.93;;;2.75;;
15693;SDS011;7947;48.834;9.132;2023-05-07T02:18:08;3.08;;;2.30;;
15693;SDS011;7947;48.834;9.132;2023-05-07T02:21:11;3.38;;;2.38;;
15693;SDS011;7947;48.834;9.132;2023-05-07T02:24:15;3.10;;;2.40;;
15693;SDS011;7947;48.834;9.132;2023-05-07T02:27:20;3.35;;;2.47;;
15693;SDS011;7947;48.834;9.132;2023-05-07T02:30:23;2.92;;;2.40;;
15693;SDS011;7947;48.834;9.132;2023-05-07T02:33:26;2.83;;;2.45;;
15693;SDS011;7947;48.834;9.132;2023-05-07T02:36:29;2.42;;;2.10;;
15693;SDS011;7947;48.834;9.132;2023-05-07T02:39:33;3.53;;;2.28;;
15693;SDS011;7947;48.834;9.132;2023-05-07T02:42:36;2.72;;;2.10;;
15693;SDS011;7947;48.834;9.132;2023-05-07T02:45:38;2.58;;;2.13;;
15693;SDS011;7947;48.834;9.132;2023-05-07T02:48:41;2.63;;;2.13;;
15693;SDS011;7947;48.834;9.132;2023-05-07T02:51:44;2.35;;;2.15;;
15693;SDS011;7947;48.834;9.132;2023-05-07T02:54:48;4.72;;;2.10;;
15693;SDS011;7947;48.834;9.132;2023-05-07T02:57:51;4.80;;;2.38;;
15693;SDS011;7947;48.834;9.132;2023-05-07T03:00:53;4.18;;;2.53;;
15693;SDS011;7947;48.834;9.132;2023-05-07T03:03:57;3.72;;;2.28;;
15693;SDS011;7947;48.834;9.132;2023-05-07T03:06:59;3.40;;;2.20;;
15693;SDS011;7947;48.834;9.132;2023-05-07T03:10:04;5.35;;;2.55;;
15693;SDS011;7947;48.834;9.132;2023-05-07T03:13:07;2.95;;;2.53;;
15693;SDS011;7947;48.834;9.132;2023-05-07T03:16:10;3.28;;;2.53;;
15693;SDS011;7947;48.834;9.132;2023-05-07T03:19:13;2.58;;;2.20;;
15693;SDS011;7947;48.834;9.132;2023-05-07T03:22:16;3.00;;;2.55;;
15693;SDS011;7947;48.834;9.132;2023-05-07T03:25:20;5.65;;;3.08;;
15693;SDS011;7947;48.834;9.132;2023-05-07T03:28:23;3.42;;;2.80;;
15693;SDS011;7947;48.834;9.132;2023-05-07T03:31:26;3.50;;;2.60;;
15693;SDS011;7947;48.834;9.132;2023-05-07T03:34:29;3.80;;;2.35;;
15693;SDS011;7947;48.834;9.132;2023-05-07T03:37:31;4.70;;;3.15;;
15693;SDS011;7947;48.834;9.132;2023-05-07T03:40:35;4.57;;;2.63;;
15693;SDS011;7947;48.834;9.132;2023-05-07T03:43:38;3.20;;;2.60;;
15693;SDS011;7947;48.834;9.132;2023-05-07T03:46:41;3.50;;;2.50;;
15693;SDS011;7947;48.834;9.132;2023-05-07T03:49:44;3.63;;;2.83;;
15693;SDS011;7947;48.834;9.132;2023-05-07T03:52:46;2.95;;;2.50;;
15693;SDS011;7947;48.834;9.132;2023-05-07T03:55:53;3.97;;;2.72;;
15693;SDS011;7947;48.834;9.132;2023-05-07T03:58:56;3.13;;;2.42;;
15693;SDS011;7947;48.834;9.132;2023-05-07T04:01:59;3.42;;;2.67;;
15693;SDS011;7947;48.834;9.132;2023-05-07T04:05:05;4.30;;;2.67;;
15693;SDS011;7947;48.834;9.132;2023-05-07T04:08:09;3.00;;;2.58;;
15693;SDS011;7947;48.834;9.132;2023-05-07T04:11:13;3.05;;;2.47;;
15693;SDS011;7947;48.834;9.132;2023-05-07T04:14:15;3.08;;;2.78;;
15693;SDS011;7947;48.834;9.132;2023-05-07T04:17:18;3.80;;;2.78;;
15693;SDS011;7947;48.834;9.132;2023-05-07T04:20:21;3.78;;;2.67;;
15693;SDS011;7947;48.834;9.132;2023-05-07T04:23:24;7.13;;;3.10;;
15693;SDS011;7947;48.834;9.132;2023-05-07T04:26:28;3.58;;;2.78;;
15693;SDS011;7947;48.834;9.132;2023-05-07T04:29:31;2.80;;;2.40;;
15693;SDS011;7947;48.834;9.132;2023-05-07T04:32:34;3.42;;;2.97;;
15693;SDS011;7947;48.834;9.132;2023-05-07T04:35:37;3.10;;;2.50;;
15693;SDS011;7947;48.834;9.132;2023-05-07T04:38:40;3.42;;;2.40;;
15693;SDS011;7947;48.834;9.132;2023-05-07T04:41:44;3.25;;;2.38;;
15693;SDS011;7947;48.834;9.132;2023-05-07T04:44:47;3.33;;;2.55;;
15693;SDS011;7947;48.834;9.132;2023-05-07T04:47:55;3.15;;;2.60;;
15693;SDS011;7947;48.834;9.132;2023-05-07T04:50:58;2.42;;;2.08;;
15693;SDS011;7947;48.834;9.132;2023-05-07T04:54:00;3.30;;;2.60;;
15693;SDS011;7947;48.834;9.132;2023-05-07T04:57:05;3.00;;;2.70;;
15693;SDS011;7947;48.834;9.132;2023-05-07T05:00:08;3.85;;;2.70;;
15693;SDS011;7947;48.834;9.132;2023-05-07T05:03:11;2.70;;;2.33;;
15693;SDS011;7947;48.834;9.132;2023-05-07T05:06:14;5.57;;;2.47;;
15693;SDS011;7947;48.834;9.132;2023-05-07T05:09:17;2.75;;;2.40;;
15693;SDS011;7947;48.834;9.132;2023-05-07T05:12:21;2.75;;;2.08;;
15693;SDS011;7947;48.834;9.132;2023-05-07T05:15:24;3.63;;;2.58;;
15693;SDS011;7947;48.834;9.132;2023-05-07T05:18:27;3.67;;;2.15;;
15693;SDS011;7947;48.834;9.132;2023-05-07T05:21:31;2.83;;;2.20;;
15693;SDS011;7947;48.834;9.132;2023-05-07T05:24:34;3.22;;;2.45;;
15693;SDS011;7947;48.834;9.132;2023-05-07T05:27:40;3.13;;;2.40;;
15693;SDS011;7947;48.834;9.132;2023-05-07T05:30:47;3.08;;;2.70;;
15693;SDS011;7947;48.834;9.132;2023-05-07T05:33:50;4.18;;;2.55;;
15693;SDS011;7947;48.834;9.132;2023-05-07T05:36:52;3.40;;;2.35;;
15693;SDS011;7947;48.834;9.132;2023-05-07T05:39:55;4.88;;;2.72;;
15693;SDS011;7947;48.834;9.132;2023-05-07T05:42:59;3.10;;;2.50;;
15693;SDS011;7947;48.834;9.132;2023-05-07T05:46:02;3.08;;;2.72;;
15693;SDS011;7947;48.834;9.132;2023-05-07T05:49:05;4.20;;;2.92;;
15693;SDS011;7947;48.834;9.132;2023-05-07T05:52:08;3.83;;;3.10;;
15693;SDS011;7947;48.834;9.132;2023-05-07T05:55:12;4.65;;;2.88;;
15693;SDS011;7947;48.834;9.132;2023-05-07T05:58:16;4.57;;;2.75;;
15693;SDS011;7947;48.834;9.132;2023-05-07T06:01:18;3.40;;;2.67;;
15693;SDS011;7947;48.834;9.132;2023-05-07T06:04:21;5.30;;;3.10;;
15693;SDS011;7947;48.834;9.132;2023-05-07T06:07:24;3.45;;;2.45;;
15693;SDS011;7947;48.834;9.132;2023-05-07T06:10:27;5.40;;;3.08;;
15693;SDS011;7947;48.834;9.132;2023-05-07T06:13:32;3.67;;;2.47;;
15693;SDS011;7947;48.834;9.132;2023-05-07T06:16:35;5.28;;;2.80;;
15693;SDS011;7947;48.834;9.132;2023-05-07T06:19:39;3.38;;;2.60;;
15693;SDS011;7947;48.834;9.132;2023-05-07T06:22:42;3.97;;;3.28;;
15693;SDS011;7947;48.834;9.132;2023-05-07T06:25:47;4.93;;;3.58;;
15693;SDS011;7947;48.834;9.132;2023-05-07T06:28:52;3.58;;;3.15;;
15693;SDS011;7947;48.834;9.132;2023-05-07T06:31:55;4.78;;;2.65;;
15693;SDS011;7947;48.834;9.132;2023-05-07T06:34:58;3.58;;;3.00;;
15693;SDS011;7947;48.834;9.132;2023-05-07T06:38:01;3.78;;;3.13;;
15693;SDS011;7947;48.834;9.132;2023-05-07T06:41:05;4.18;;;3.10;;
15693;SDS011;7947;48.834;9.132;2023-05-07T06:44:09;2.78;;;2.45;;
15693;SDS011;7947;48.834;9.132;2023-05-07T06:47:12;4.13;;;2.80;;
15693;SDS011;7947;48.834;9.132;2023-05-07T06:50:16;5.80;;;3.25;;
15693;SDS011;7947;48.834;9.132;2023-05-07T06:53:19;2.45;;;2.25;;
15693;SDS011;7947;48.834;9.132;2023-05-07T06:56:22;3.25;;;2.60;;
15693;SDS011;7947;48.834;9.132;2023-05-07T06:59:27;5.05;;;2.92;;
15693;SDS011;7947;48.834;9.132;2023-05-07T07:02:29;5.60;;;2.65;;
15693;SDS011;7947;48.834;9.132;2023-05-07T07:05:32;4.40;;;2.90;;
15693;SDS011;7947;48.834;9.132;2023-05-07T07:08:35;4.55;;;2.90;;
15693;SDS011;7947;48.834;9.132;2023-05-07T07:11:40;4.95;;;2.67;;
15693;SDS011;7947;48.834;9.132;2023-05-07T07:14:44;4.20;;;2.63;;
15693;SDS011;7947;48.834;9.132;2023-05-07T07:17:47;2.80;;;2.22;;
15693;SDS011;7947;48.834;9.132;2023-05-07T07:20:51;2.63;;;2.00;;
15693;SDS011;7947;48.834;9.132;2023-05-07T07:23:53;2.30;;;2.00;;
15693;SDS011;7947;48.834;9.132;2023-05-07T07:26:56;2.13;;;1.83;;
15693;SDS011;7947;48.834;9.132;2023-05-07T07:30:00;2.47;;;2.28;;
15693;SDS011;7947;48.834;9.132;2023-05-07T07:33:03;2.63;;;2.40;;
15693;SDS011;7947;48.834;9.132;2023-05-07T07:36:06;4.68;;;2.10;;
15693;SDS011;7947;48.834;9.132;2023-05-07T07:39:09;2.70;;;2.17;;
15693;SDS011;7947;48.834;9.132;2023-05-07T07:42:12;2.30;;;2.10;;
15693;SDS011;7947;48.834;9.132;2023-05-07T07:45:16;3.05;;;2.30;;
15693;SDS011;7947;48.834;9.132;2023-05-07T07:48:19;1.98;;;1.70;;
15693;SDS011;7947;48.834;9.132;2023-05-07T07:51:22;2.75;;;2.28;;
15693;SDS011;7947;48.834;9.132;2023-05-07T07:54:25;2.50;;;1.92;;
15693;SDS011;7947;48.834;9.132;2023-05-07T07:57:28;3.92;;;2.55;;
15693;SDS011;7947;48.834;9.132;2023-05-07T08:00:32;3.70;;;2.17;;
15693;SDS011;7947;48.834;9.132;2023-05-07T08:03:37;2.65;;;2.08;;
15693;SDS011;7947;48.834;9.132;2023-05-07T08:06:40;2.78;;;2.30;;
15693;SDS011;7947;48.834;9.132;2023-05-07T08:09:43;3.33;;;2.45;;
15693;SDS011;7947;48.834;9.132;2023-05-07T08:12:46;4.65;;;2.38;;
15693;SDS011;7947;48.834;9.132;2023-05-07T08:15:50;2.42;;;2.22;;
15693;SDS011;7947;48.834;9.132;2023-05-07T08:18:53;5.20;;;2.30;;
15693;SDS011;7947;48.834;9.132;2023-05-07T08:21:56;2.40;;;1.73;;
15693;SDS011;7947;48.834;9.132;2023-05-07T08:25:01;2.22;;;1.95;;
15693;SDS011;7947;48.834;9.132;2023-05-07T08:28:04;2.78;;;2.10;;
15693;SDS011;7947;48.834;9.132;2023-05-07T08:31:11;3.13;;;2.28;;
15693;SDS011;7947;48.834;9.132;2023-05-07T08:34:14;3.55;;;2.13;;
15693;SDS011;7947;48.834;9.132;2023-05-07T08:37:17;2.35;;;2.15;;
15693;SDS011;7947;48.834;9.132;2023-05-07T08:40:20;3.40;;;2.28;;
15693;SDS011;7947;48.834;9.132;2023-05-07T08:43:27;2.92;;;2.40;;
15693;SDS011;7947;48.834;9.132;2023-05-07T08:46:31;2.85;;;2.50;;
15693;SDS011;7947;48.834;9.132;2023-05-07T08:49:34;2.90;;;2.13;;
15693;SDS011;7947;48.834;9.132;2023-05-07T08:52:37;2.17;;;1.92;;
15693;SDS011;7947;48.834;9.132;2023-05-07T08:55:41;2.15;;;1.83;;
15693;SDS011;7947;48.834;9.132;2023-05-07T08:58:44;2.35;;;1.90;;
15693;SDS011;7947;48.834;9.132;2023-05-07T09:01:48;2.78;;;2.20;;
15693;SDS011;7947;48.834;9.132;2023-05-07T09:04:51;2.67;;;1.90;;
15693;SDS011;7947;48.834;9.132;2023-05-07T09:07:54;2.83;;;2.03;;
15693;SDS011;7947;48.834;9.132;2023-05-07T09:10:58;2.80;;;1.98;;
15693;SDS011;7947;48.834;9.132;2023-05-07T09:14:01;3.45;;;1.65;;
15693;SDS011;7947;48.834;9.132;2023-05-07T09:17:06;1.42;;;1.33;;
15693;SDS011;7947;48.834;9.132;2023-05-07T09:20:09;3.00;;;1.80;;
15693;SDS011;7947;48.834;9.132;2023-05-07T09:23:12;2.72;;;2.08;;
15693;SDS011;7947;48.834;9.132;2023-05-07T09:26:16;1.95;;;1.60;;
15693;SDS011;7947;48.834;9.132;2023-05-07T09:29:19;1.60;;;1.50;;
15693;SDS011;7947;48.834;9.132;2023-05-07T09:32:24;1.70;;;1.50;;
15693;SDS011;7947;48.834;9.132;2023-05-07T09:35:29;1.77;;;1.67;;
15693;SDS011;7947;48.834;9.132;2023-05-07T09:38:32;2.08;;;1.70;;
15693;SDS011;7947;48.834;9.132;2023-05-07T09:41:43;2.08;;;1.63;;
15693;SDS011;7947;48.834;9.132;2023-05-07T09:44:46;2.50;;;1.67;;
15693;SDS011;7947;48.834;9.132;2023-05-07T09:47:52;3.30;;;1.50;;
15693;SDS011;7947;48.834;9.132;2023-05-07T09:50:57;2.55;;;1.63;;
15693;SDS011;7947;48.834;9.132;2023-05-07T09:54:04;6.35;;;2.10;;
15693;SDS011;7947;48.834;9.132;2023-05-07T09:57:10;1.83;;;1.55;;
15693;SDS011;7947;48.834;9.132;2023-05-07T10:00:14;2.70;;;1.65;;
15693;SDS011;7947;48.834;9.132;2023-05-07T10:03:19;2.20;;;1.55;;
15693;SDS011;7947;48.834;9.132;2023-05-07T10:06:23;2.95;;;1.58;;
15693;SDS011;7947;48.834;9.132;2023-05-07T10:09:27;1.48;;;1.38;;
15693;SDS011;7947;48.834;9.132;2023-05-07T10:12:31;2.05;;;1.45;;
15693;SDS011;7947;48.834;9.132;2023-05-07T10:15:40;1.38;;;1.25;;
15693;SDS011;7947;48.834;9.132;2023-05-07T10:18:44;3.00;;;1.20;;
15693;SDS011;7947;48.834;9.132;2023-05-07T10:21:51;2.10;;;1.50;;
15693;SDS011;7947;48.834;9.132;2023-05-07T10:24:58;1.88;;;1.40;;
15693;SDS011;7947;48.834;9.132;2023-05-07T10:28:07;1.55;;;1.15;;
15693;SDS011;7947;48.834;9.132;2023-05-07T10:31:17;1.48;;;1.38;;
15693;SDS011;7947;48.834;9.132;2023-05-07T10:34:35;2.78;;;1.48;;
15693;SDS011;7947;48.834;9.132;2023-05-07T10:37:41;2.03;;;1.20;;
15693;SDS011;7947;48.834;9.132;2023-05-07T10:40:44;2.45;;;1.35;;
15693;SDS011;7947;48.834;9.132;2023-05-07T10:43:48;1.75;;;1.60;;
15693;SDS011;7947;48.834;9.132;2023-05-07T10:47:03;3.33;;;1.45;;
15693;SDS011;7947;48.834;9.132;2023-05-07T10:50:23;1.52;;;1.20;;
15693;SDS011;7947;48.834;9.132;2023-05-07T10:53:26;1.65;;;1.33;;
15693;SDS011;7947;48.834;9.132;2023-05-07T10:56:30;1.30;;;1.17;;
15693;SDS011;7947;48.834;9.132;2023-05-07T10:59:34;1.77;;;1.15;;
15693;SDS011;7947;48.834;9.132;2023-05-07T11:06:12;1.83;;;1.30;;
15693;SDS011;7947;48.834;9.132;2023-05-07T11:09:16;1.50;;;1.17;;
15693;SDS011;7947;48.834;9.132;2023-05-07T11:15:49;1.65;;;1.10;;
15693;SDS011;7947;48.834;9.132;2023-05-07T11:18:54;2.25;;;1.40;;
15693;SDS011;7947;48.834;9.132;2023-05-07T11:21:59;2.03;;;1.27;;
15693;SDS011;7947;48.834;9.132;2023-05-07T11:25:02;2.65;;;1.52;;
15693;SDS011;7947;48.834;9.132;2023-05-07T11:28:07;2.10;;;1.30;;
15693;SDS011;7947;48.834;9.132;2023-05-07T11:31:11;1.38;;;1.20;;
15693;SDS011;7947;48.834;9.132;2023-05-07T11:34:14;1.48;;;1.35;;
15693;SDS011;7947;48.834;9.132;2023-05-07T11:37:24;1.92;;;1.75;;
15693;SDS011;7947;48.834;9.132;2023-05-07T11:40:30;1.50;;;1.40;;
15693;SDS011;7947;48.834;9.132;2023-05-07T11:43:33;2.08;;;1.42;;
15693;SDS011;7947;48.834;9.132;2023-05-07T11:46:37;1.92;;;1.50;;
15693;SDS011;7947;48.834;9.132;2023-05-07T11:49:46;2.03;;;1.48;;
15693;SDS011;7947;48.834;9.132;2023-05-07T11:52:51;2.03;;;1.40;;
15693;SDS011;7947;48.834;9.132;2023-05-07T11:55:54;4.68;;;1.77;;
15693;SDS011;7947;48.834;9.132;2023-05-07T11:58:58;1.30;;;1.20;;
15693;SDS011;7947;48.834;9.132;2023-05-07T12:02:01;2.33;;;1.75;;
15693;SDS011;7947;48.834;9.132;2023-05-07T12:05:04;2.03;;;1.65;;
15693;SDS011;7947;48.834;9.132;2023-05-07T12:08:08;1.98;;;1.42;;
15693;SDS011;7947;48.834;9.132;2023-05-07T12:11:22;1.40;;;1.30;;
15693;SDS011;7947;48.834;9.132;2023-05-07T12:14:27;2.60;;;1.48;;
15693;SDS011;7947;48.834;9.132;2023-05-07T12:17:30;2.08;;;1.27;;
15693;SDS011;7947;48.834;9.132;2023-05-07T12:20:33;1.48;;;1.30;;
15693;SDS011;7947;48.834;9.132;2023-05-07T12:23:38;1.42;;;1.30;;
15693;SDS011;7947;48.834;9.132;2023-05-07T12:26:41;3.28;;;1.30;;
15693;SDS011;7947;48.834;9.132;2023-05-07T12:29:44;4.50;;;1.80;;
15693;SDS011;7947;48.834;9.132;2023-05-07T12:32:47;2.95;;;1.70;;
15693;SDS011;7947;48.834;9.132;2023-05-07T12:35:55;2.58;;;1.70;;
15693;SDS011;7947;48.834;9.132;2023-05-07T12:38:59;1.50;;;1.40;;
15693;SDS011;7947;48.834;9.132;2023-05-07T12:42:03;1.80;;;1.20;;
15693;SDS011;7947;48.834;9.132;2023-05-07T12:45:09;1.73;;;1.38;;
15693;SDS011;7947;48.834;9.132;2023-05-07T12:48:12;2.03;;;1.80;;
15693;SDS011;7947;48.834;9.132;2023-05-07T12:51:15;3.30;;;2.03;;
15693;SDS011;7947;48.834;9.132;2023-05-07T12:57:43;1.52;;;1.20;;
15693;SDS011;7947;48.834;9.132;2023-05-07T13:00:48;1.45;;;0.80;;
15693;SDS011;7947;48.834;9.132;2023-05-07T13:03:52;1.10;;;1.00;;
15693;SDS011;7947;48.834;9.132;2023-05-07T13:06:55;1.15;;;1.05;;
15693;SDS011;7947;48.834;9.132;2023-05-07T13:09:59;2.80;;;1.00;;
15693;SDS011;7947;48.834;9.132;2023-05-07T13:13:02;0.70;;;0.70;;
15693;SDS011;7947;48.834;9.132;2023-05-07T13:16:06;1.58;;;1.02;;
15693;SDS011;7947;48.834;9.132;2023-05-07T13:19:11;1.30;;;1.20;;
15693;SDS011;7947;48.834;9.132;2023-05-07T13:22:13;1.10;;;0.98;;
15693;SDS011;7947;48.834;9.132;2023-05-07T13:25:17;1.90;;;0.95;;
15693;SDS011;7947;48.834;9.132;2023-05-07T13:28:20;2.53;;;0.90;;
15693;SDS011;7947;48.834;9.132;2023-05-07T13:31:23;1.60;;;0.95;;
15693;SDS011;7947;48.834;9.132;2023-05-07T13:34:27;2.45;;;1.05;;
15693;SDS011;7947;48.834;9.132;2023-05-07T13:37:30;1.88;;;0.90;;
15693;SDS011;7947;48.834;9.132;2023-05-07T13:40:34;1.10;;;0.90;;
15693;SDS011;7947;48.834;9.132;2023-05-07T13:43:37;1.38;;;0.82;;
15693;SDS011;7947;48.834;9.132;2023-05-07T13:46:41;1.75;;;1.10;;
15693;SDS011;7947;48.834;9.132;2023-05-07T13:49:44;1.00;;;0.90;;
15693;SDS011;7947;48.834;9.132;2023-05-07T13:52:46;1.55;;;0.73;;
15693;SDS011;7947;48.834;9.132;2023-05-07T13:55:53;2.35;;;0.80;;
15693;SDS011;7947;48.834;9.132;2023-05-07T13:58:56;0.93;;;0.65;;
15693;SDS011;7947;48.834;9.132;2023-05-07T14:02:01;1.42;;;0.80;;
15693;SDS011;7947;48.834;9.132;2023-05-07T14:05:04;1.33;;;0.80;;
15693;SDS011;7947;48.834;9.132;2023-05-07T14:08:07;0.63;;;0.63;;
15693;SDS011;7947;48.834;9.132;2023-05-07T14:11:11;1.90;;;0.98;;
15693;SDS011;7947;48.834;9.132;2023-05-07T14:14:14;1.27;;;0.95;;
15693;SDS011;7947;48.834;9.132;2023-05-07T14:17:17;1.75;;;0.73;;
15693;SDS011;7947;48.834;9.132;2023-05-07T14:20:21;0.82;;;0.75;;
15693;SDS011;7947;48.834;9.132;2023-05-07T14:23:24;1.55;;;0.80;;
15693;SDS011;7947;48.834;9.132;2023-05-07T14:26:29;1.25;;;0.93;;
15693;SDS011;7947;48.834;9.132;2023-05-07T14:29:32;1.23;;;0.80;;
15693;SDS011;7947;48.834;9.132;2023-05-07T14:32:36;1.10;;;1.00;;
15693;SDS011;7947;48.834;9.132;2023-05-07T14:35:39;2.20;;;1.27;;
15693;SDS011;7947;48.834;9.132;2023-05-07T14:38:42;2.42;;;1.17;;
15693;SDS011;7947;48.834;9.132;2023-05-07T14:41:46;1.90;;;1.40;;
15693;SDS011;7947;48.834;9.132;2023-05-07T14:44:49;1.25;;;1.00;;
15693;SDS011;7947;48.834;9.132;2023-05-07T14:47:52;2.10;;;1.10;;
15693;SDS011;7947;48.834;9.132;2023-05-07T14:50:55;2.30;;;1.35;;
15693;SDS011;7947;48.834;9.132;2023-05-07T14:53:58;2.30;;;1.05;;
15693;SDS011;7947;48.834;9.132;2023-05-07T14:57:02;1.58;;;1.02;;
15693;SDS011;7947;48.834;9.132;2023-05-07T15:00:07;1.58;;;1.38;;
15693;SDS011;7947;48.834;9.132;2023-05-07T15:03:12;1.77;;;1.25;;
15693;SDS011;7947;48.834;9.132;2023-05-07T15:06:15;0.85;;;0.80;;
15693;SDS011;7947;48.834;9.132;2023-05-07T15:09:18;1.73;;;0.88;;
15693;SDS011;7947;48.834;9.132;2023-05-07T15:12:22;1.48;;;1.00;;
15693;SDS011;7947;48.834;9.132;2023-05-07T15:15:25;1.38;;;1.20;;
15693;SDS011;7947;48.834;9.132;2023-05-07T15:18:28;0.88;;;0.85;;
15693;SDS011;7947;48.834;9.132;2023-05-07T15:21:30;3.58;;;1.50;;
15693;SDS011;7947;48.834;9.132;2023-05-07T15:24:35;2.38;;;1.10;;
15693;SDS011;7947;48.834;9.132;2023-05-07T15:27:40;2.38;;;1.30;;
15693;SDS011;7947;48.834;9.132;2023-05-07T15:30:42;1.20;;;1.10;;
15693;SDS011;7947;48.834;9.132;2023-05-07T15:33:45;2.65;;;1.50;;
15693;SDS011;7947;48.834;9.132;2023-05-07T15:36:48;2.95;;;1.77;;
15693;SDS011;7947;48.834;9.132;2023-05-07T15:39:51;1.50;;;1.40;;
15693;SDS011;7947;48.834;9.132;2023-05-07T15:42:55;3.25;;;1.63;;
15693;SDS011;7947;48.834;9.132;2023-05-07T15:45:58;2.05;;;1.60;;
15693;SDS011;7947;48.834;9.132;2023-05-07T15:49:02;2.05;;;1.85;;
15693;SDS011;7947;48.834;9.132;2023-05-07T15:52:05;2.05;;;1.50;;
15693;SDS011;7947;48.834;9.132;2023-05-07T15:55:08;1.95;;;1.60;;
15693;SDS011;7947;48.834;9.132;2023-05-07T15:58:13;2.17;;;1.40;;
15693;SDS011;7947;48.834;9.132;2023-05-07T16:01:16;2.85;;;1.67;;
15693;SDS011;7947;48.834;9.132;2023-05-07T16:04:19;3.78;;;1.73;;
15693;SDS011;7947;48.834;9.132;2023-05-07T16:07:22;4.63;;;2.83;;
15693;SDS011;7947;48.834;9.132;2023-05-07T16:10:24;1.95;;;1.52;;
15693;SDS011;7947;48.834;9.132;2023-05-07T16:13:29;2.20;;;1.63;;
15693;SDS011;7947;48.834;9.132;2023-05-07T16:16:32;1.70;;;1.60;;
15693;SDS011;7947;48.834;9.132;2023-05-07T16:19:35;2.92;;;2.15;;
15693;SDS011;7947;48.834;9.132;2023-05-07T16:22:37;1.65;;;1.50;;
15693;SDS011;7947;48.834;9.132;2023-05-07T16:25:40;3.15;;;1.73;;
15693;SDS011;7947;48.834;9.132;2023-05-07T16:28:44;3.22;;;2.00;;
15693;SDS011;7947;48.834;9.132;2023-05-07T16:31:47;2.45;;;1.80;;
15693;SDS011;7947;48.834;9.132;2023-05-07T16:34:50;2.35;;;1.70;;
15693;SDS011;7947;48.834;9.132;2023-05-07T16:37:53;1.70;;;1.60;;
15693;SDS011;7947;48.834;9.132;2023-05-07T16:40:56;2.58;;;1.95;;
15693;SDS011;7947;48.834;9.132;2023-05-07T16:44:00;3.17;;;2.20;;
15693;SDS011;7947;48.834;9.132;2023-05-07T16:47:04;2.22;;;2.03;;
15693;SDS011;7947;48.834;9.132;2023-05-07T16:50:07;3.00;;;1.70;;
15693;SDS011;7947;48.834;9.132;2023-05-07T16:53:10;1.90;;;1.60;;
15693;SDS011;7947;48.834;9.132;2023-05-07T16:56:14;2.45;;;1.60;;
15693;SDS011;7947;48.834;9.132;2023-05-07T16:59:18;1.70;;;1.60;;
15693;SDS011;7947;48.834;9.132;2023-05-07T17:02:21;1.95;;;1.30;;
15693;SDS011;7947;48.834;9.132;2023-05-07T17:05:24;2.17;;;1.77;;
15693;SDS011;7947;48.834;9.132;2023-05-07T17:08:27;2.40;;;2.20;;
15693;SDS011;7947;48.834;9.132;2023-05-07T17:11:30;4.32;;;1.65;;
15693;SDS011;7947;48.834;9.132;2023-05-07T17:14:35;3.17;;;1.88;;
15693;SDS011;7947;48.834;9.132;2023-05-07T17:17:38;2.05;;;1.60;;
15693;SDS011;7947;48.834;9.132;2023-05-07T17:20:42;2.28;;;2.00;;
15693;SDS011;7947;48.834;9.132;2023-05-07T17:23:44;3.20;;;2.72;;
15693;SDS011;7947;48.834;9.132;2023-05-07T17:26:47;3.65;;;3.10;;
15693;SDS011;7947;48.834;9.132;2023-05-07T17:29:51;4.10;;;2.38;;
15693;SDS011;7947;48.834;9.132;2023-05-07T17:32:55;2.60;;;1.95;;
15693;SDS011;7947;48.834;9.132;2023-05-07T17:36:09;2.05;;;1.88;;
15693;SDS011;7947;48.834;9.132;2023-05-07T17:39:12;2.45;;;1.70;;
15693;SDS011;7947;48.834;9.132;2023-05-07T17:42:15;2.70;;;1.65;;
15693;SDS011;7947;48.834;9.132;2023-05-07T17:45:19;1.50;;;1.40;;
15693;SDS011;7947;48.834;9.132;2023-05-07T17:48:22;2.10;;;1.70;;
15693;SDS011;7947;48.834;9.132;2023-05-07T17:51:25;2.13;;;1.75;;
15693;SDS011;7947;48.834;9.132;2023-05-07T17:54:39;2.20;;;1.67;;
15693;SDS011;7947;48.834;9.132;2023-05-07T17:57:42;1.98;;;1.77;;
15693;SDS011;7947;48.834;9.132;2023-05-07T18:00:46;1.52;;;1.42;;
15693;SDS011;7947;48.834;9.132;2023-05-07T18:03:49;1.65;;;1.42;;
15693;SDS011;7947;48.834;9.132;2023-05-07T18:06:52;2.17;;;1.73;;
15693;SDS011;7947;48.834;9.132;2023-05-07T18:09:57;2.40;;;1.50;;
15693;SDS011;7947;48.834;9.132;2023-05-07T18:12:59;1.83;;;1.73;;
15693;SDS011;7947;48.834;9.132;2023-05-07T18:16:04;2.45;;;2.05;;
15693;SDS011;7947;48.834;9.132;2023-05-07T18:19:07;3.20;;;1.88;;
15693;SDS011;7947;48.834;9.132;2023-05-07T18:22:10;4.22;;;1.65;;
15693;SDS011;7947;48.834;9.132;2023-05-07T18:25:13;1.77;;;1.40;;
15693;SDS011;7947;48.834;9.132;2023-05-07T18:28:16;2.13;;;1.70;;
15693;SDS011;7947;48.834;9.132;2023-05-07T18:31:20;2.10;;;1.70;;
15693;SDS011;7947;48.834;9.132;2023-05-07T18:34:23;2.40;;;1.70;;
15693;SDS011;7947;48.834;9.132;2023-05-07T18:37:25;2.40;;;1.75;;
15693;SDS011;7947;48.834;9.132;2023-05-07T18:40:28;2.90;;;1.60;;
15693;SDS011;7947;48.834;9.132;2023-05-07T18:43:31;2.70;;;1.88;;
15693;SDS011;7947;48.834;9.132;2023-05-07T18:46:36;2.30;;;1.73;;
15693;SDS011;7947;48.834;9.132;2023-05-07T18:49:38;1.98;;;1.73;;
15693;SDS011;7947;48.834;9.132;2023-05-07T18:52:41;2.42;;;1.55;;